Time;durP1;ratioP1;P1;durP2;ratioP2;P2;SDS_P1;SDS_P2;PMS_P1;PMS_P2;Temp;Humidity;BMP_temperature;BMP_pressure;BME280_temperature;BME280_humidity;BME280_pressure;Samples;Min_cycle;Max_cycle;Signal;HPM_P1;HPM_P2
2021/11/08 00:00:12;;;;;;;10.85;8.40;;;;;;;8.59;62.94;100051.53;5020100;27;96869;-85
2021/11/08 00:02:40;;;;;;;11.93;8.93;;;;;;;8.66;62.70;100064.41;5008734;27;96709;-85
2021/11/08 00:05:06;;;;;;;10.25;9.02;;;;;;;8.72;63.16;100072.94;4999470;27;101197;-85
2021/11/08 00:07:33;;;;;;;12.40;7.78;;;;;;;8.55;62.42;100035.94;5011983;28;101477;-84
2021/11/08 00:09:58;;;;;;;10.38;8.20;;;;;;;8.72;62.81;100072.06;5005191;28;97004;-85
2021/11/08 00:12:24;;;;;;;9.95;7.47;;;;;;;8.66;62.60;100074.88;5024707;27;97101;-86
2021/11/08 00:14:55;;;;;;;11.63;8.55;;;;;;;8.58;62.88;100077.72;5004241;28;101546;-85
2021/11/08 00:20:09;;;;;;;9.00;7.53;;;;;;;8.48;63.44;100077.13;5027084;27;97176;-85
2021/11/08 00:22:38;;;;;;;9.88;7.53;;;;;;;8.50;63.20;100082.34;5025324;27;97329;-85
2021/11/08 00:25:04;;;;;;;10.27;7.28;;;;;;;8.45;63.03;100076.38;5007434;27;101521;-85
2021/11/08 00:27:30;;;;;;;10.13;7.30;;;;;;;8.47;63.05;100087.66;5008033;28;101375;-86
2021/11/08 00:29:55;;;;;;;9.50;7.20;;;;;;;8.36;63.19;100085.31;5024387;27;96894;-85
2021/11/08 00:32:21;;;;;;;11.45;8.38;;;;;;;8.25;63.59;100069.06;5020880;28;96865;-85
2021/11/08 00:34:47;;;;;;;9.98;8.70;;;;;;;8.39;63.58;100090.50;5022500;27;98967;-86
2021/11/08 00:37:13;;;;;;;12.25;8.98;;;;;;;8.32;63.20;100081.94;5001178;28;98613;-87
2021/11/08 00:39:38;;;;;;;10.45;7.50;;;;;;;8.12;63.51;100060.72;4992167;27;96755;-85
2021/11/08 00:42:04;;;;;;;9.90;8.63;;;;;;;8.27;63.88;100094.28;5004074;28;97007;-85
2021/11/08 00:44:30;;;;;;;9.65;7.35;;;;;;;8.22;63.37;100080.47;5012547;28;101335;-86
2021/11/08 00:46:56;;;;;;;13.98;9.18;;;;;;;8.25;63.82;100088.22;5020864;27;100985;-86
2021/11/08 00:49:24;;;;;;;12.05;9.35;;;;;;;8.21;63.73;100093.59;5017253;28;97090;-85
2021/11/08 00:51:49;;;;;;;13.15;10.23;;;;;;;8.21;63.73;100086.59;5015954;28;97311;-85
2021/11/08 00:54:16;;;;;;;13.20;8.38;;;;;;;8.15;63.65;100078.94;5010697;28;101304;-88
2021/11/08 00:56:44;;;;;;;15.15;10.18;;;;;;;8.31;63.34;100092.44;5016939;27;101331;-85
2021/11/08 00:59:14;;;;;;;16.83;9.63;;;;;;;8.25;63.66;100093.44;4995376;28;97027;-85
2021/11/08 01:01:41;;;;;;;17.65;9.00;;;;;;;8.25;63.61;100084.75;5004682;27;96832;-86
2021/11/08 01:04:07;;;;;;;13.68;9.82;;;;;;;8.19;63.48;100088.41;5000220;27;101181;-86
2021/11/08 01:06:33;;;;;;;14.77;8.30;;;;;;;8.13;64.11;100084.19;5021604;27;97976;-86
2021/11/08 01:08:59;;;;;;;13.43;8.05;;;;;;;8.20;63.73;100097.09;5004137;27;97198;-85
2021/11/08 01:11:24;;;;;;;12.95;8.20;;;;;;;8.18;63.98;100094.53;4992793;28;96805;-86
2021/11/08 01:13:50;;;;;;;11.27;8.30;;;;;;;8.12;63.86;100092.94;5016318;27;97678;-85
2021/11/08 01:16:16;;;;;;;18.25;10.85;;;;;;;8.07;63.93;100100.06;5019964;27;100023;-88
2021/11/08 01:18:44;;;;;;;10.90;8.88;;;;;;;8.08;63.87;100101.75;5015201;28;97043;-85
2021/11/08 01:21:10;;;;;;;12.70;8.00;;;;;;;8.10;64.04;100107.81;5018285;28;96783;-85
2021/11/08 01:23:35;;;;;;;10.57;7.80;;;;;;;8.16;63.64;100102.41;5015792;28;101045;-85
2021/11/08 01:26:07;;;;;;;11.32;8.07;;;;;;;8.15;63.78;100105.09;4998588;28;101168;-85
2021/11/08 01:28:39;;;;;;;11.07;7.40;;;;;;;8.08;63.58;100090.44;5000894;28;96863;-85
2021/11/08 01:31:06;;;;;;;;;;;;;;;8.20;63.55;100110.16;5005350;28;96769;-86
2021/11/08 01:33:33;;;;;;;10.70;8.32;;;;;;;8.15;63.08;100103.31;5014014;28;101138;-85
2021/11/08 01:38:45;;;;;;;12.18;8.70;;;;;;;8.27;63.54;100123.03;5015281;28;96881;-85
2021/11/08 01:41:13;;;;;;;11.20;7.82;;;;;;;8.25;63.37;100122.22;4999272;28;97018;-85
2021/11/08 01:43:41;;;;;;;10.68;8.45;;;;;;;8.24;63.65;100117.91;5008140;28;101151;-85
2021/11/08 01:46:07;;;;;;;10.40;7.43;;;;;;;8.32;63.45;100113.31;5013201;28;101667;-86
2021/11/08 01:48:33;;;;;;;8.52;6.70;;;;;;;8.37;63.31;100113.16;5014387;28;97318;-85
2021/11/08 01:51:00;;;;;;;12.77;8.10;;;;;;;8.36;63.06;100108.84;4998843;28;97470;-84
2021/11/08 01:53:26;;;;;;;12.32;7.78;;;;;;;8.30;62.78;100116.88;4995994;28;101600;-85
2021/11/08 01:55:53;;;;;;;12.80;8.23;;;;;;;8.32;63.61;100115.06;4999144;28;100850;-85
2021/11/08 01:58:25;;;;;;;10.65;8.05;;;;;;;8.33;63.27;100117.63;5001450;28;96714;-88
2021/11/08 02:00:52;;;;;;;15.20;8.77;;;;;;;8.29;62.92;100117.75;4997958;28;97055;-85
2021/11/08 02:03:18;;;;;;;12.98;8.52;;;;;;;8.32;63.00;100109.81;4996492;28;101647;-87
2021/11/08 02:05:45;;;;;;;8.27;7.18;;;;;;;8.44;63.03;100121.75;5013933;28;101581;-85
2021/11/08 02:08:11;;;;;;;7.47;6.45;;;;;;;8.46;62.36;100127.78;4987293;28;96655;-85
2021/11/08 02:10:37;;;;;;;10.27;6.60;;;;;;;8.30;62.65;100094.19;5016010;28;97233;-86
2021/11/08 02:13:03;;;;;;;12.07;7.28;;;;;;;8.42;62.29;100111.31;4999214;28;101354;-86
2021/11/08 02:15:29;;;;;;;11.43;8.13;;;;;;;8.53;62.32;100121.50;5026037;28;101417;-85
2021/11/08 02:17:56;;;;;;;13.02;7.80;;;;;;;8.43;62.71;100105.19;5019046;27;96737;-86
2021/11/08 02:20:28;;;;;;;13.85;8.00;;;;;;;8.55;62.26;100131.00;5017940;27;97047;-86
2021/11/08 02:22:57;;;;;;;12.25;8.05;;;;;;;8.55;61.94;100123.16;5009014;28;101402;-85
2021/11/08 02:25:24;;;;;;;8.95;6.72;;;;;;;8.57;61.89;100129.19;5015844;27;101636;-85
2021/11/08 02:27:52;;;;;;;8.73;6.97;;;;;;;8.60;62.24;100136.94;5018480;27;97150;-85
2021/11/08 02:30:19;;;;;;;9.85;7.78;;;;;;;8.60;62.34;100133.47;5010966;27;97058;-88
2021/11/08 02:32:45;;;;;;;9.57;8.10;;;;;;;8.64;62.04;100135.13;4990484;28;101571;-85
2021/11/08 02:35:13;;;;;;;13.32;8.38;;;;;;;8.68;61.77;100135.88;5012956;27;100150;-85
2021/11/08 02:37:39;;;;;;;9.82;7.03;;;;;;;8.65;62.03;100142.06;4990770;27;96768;-85
2021/11/08 02:40:07;;;;;;;11.07;7.35;;;;;;;8.59;61.70;100129.16;4990426;27;96751;-85
2021/11/08 02:42:33;;;;;;;10.85;8.25;;;;;;;8.63;61.80;100140.38;4992401;28;101588;-85
2021/11/08 02:45:01;;;;;;;9.95;7.70;;;;;;;8.48;61.86;100120.75;5015993;27;99261;-85
2021/11/08 02:47:27;;;;;;;8.77;7.57;;;;;;;8.52;62.01;100122.38;5002568;27;97192;-85
2021/11/08 02:49:54;;;;;;;10.45;7.68;;;;;;;8.63;62.03;100137.78;5000262;28;96820;-87
2021/11/08 02:52:23;;;;;;;10.57;7.95;;;;;;;8.65;61.26;100144.69;4997829;28;101468;-88
2021/11/08 02:54:51;;;;;;;11.30;7.28;;;;;;;8.64;61.43;100140.34;4999412;27;100895;-86
2021/11/08 02:57:21;;;;;;;12.23;7.28;;;;;;;8.74;61.81;100164.50;5004415;27;96739;-85
2021/11/08 02:59:47;;;;;;;15.95;6.93;;;;;;;8.70;61.55;100161.13;5001812;27;97597;-86
2021/11/08 03:02:17;;;;;;;10.18;7.10;;;;;;;8.74;61.71;100164.50;5002742;27;101039;-85
2021/11/08 03:04:45;;;;;;;12.80;8.20;;;;;;;8.73;61.68;100166.25;4995646;27;101146;-86
2021/11/08 03:07:11;;;;;;;9.18;8.27;;;;;;;8.74;61.42;100161.88;5017974;27;96979;-85
2021/11/08 03:09:42;;;;;;;9.65;8.18;;;;;;;8.74;61.40;100160.09;5001277;27;96724;-85
2021/11/08 03:12:14;;;;;;;11.27;8.02;;;;;;;8.73;61.64;100165.41;4999936;27;101412;-85
2021/11/08 03:14:43;;;;;;;;;;;;;;;8.69;61.76;100167.22;5021265;27;98383;-85
2021/11/08 03:17:15;;;;;;;11.93;8.30;;;;;;;8.75;61.32;100167.03;5020359;27;97083;-85
2021/11/08 03:19:43;;;;;;;12.55;6.63;;;;;;;8.72;61.80;100164.53;5019199;27;96960;-85
2021/11/08 03:22:14;;;;;;;11.75;8.02;;;;;;;8.64;61.26;100153.44;5001864;27;100275;-86
2021/11/08 03:24:59;;;;;;;11.60;6.88;;;;;;;8.82;61.04;100173.84;5003112;27;101494;-87
2021/11/08 03:30:07;;;;;;;9.80;6.65;;;;;;;8.61;61.73;100148.31;5024225;27;96637;-85
2021/11/08 03:32:35;;;;;;;10.13;7.35;;;;;;;8.72;61.68;100172.38;5005516;27;101825;-85
2021/11/08 03:35:04;;;;;;;11.65;7.88;;;;;;;8.64;61.63;100150.81;5020010;27;98024;-85
2021/11/08 03:37:36;;;;;;;13.07;7.28;;;;;;;8.54;61.62;100147.59;5008414;27;97266;-84
2021/11/08 03:40:08;;;;;;;11.18;6.32;;;;;;;8.73;62.07;100178.50;4999502;28;96739;-86
2021/11/08 03:42:35;;;;;;;12.10;8.13;;;;;;;8.65;61.49;100168.22;5030741;27;101252;-85
2021/11/08 03:45:01;;;;;;;13.50;6.75;;;;;;;8.75;61.72;100185.38;5008355;27;98336;-85
2021/11/08 03:47:26;;;;;;;15.75;7.18;;;;;;;8.82;61.52;100186.06;4999324;27;96735;-86
2021/11/08 03:49:52;;;;;;;13.25;7.35;;;;;;;8.65;61.76;100163.00;5002143;28;96904;-85
2021/11/08 03:52:19;;;;;;;12.20;8.25;;;;;;;8.73;61.75;100176.72;4999087;28;100943;-85
2021/11/08 03:54:45;;;;;;;11.52;6.30;;;;;;;8.80;61.72;100193.09;5016548;27;100764;-85
2021/11/08 03:57:11;;;;;;;12.82;7.00;;;;;;;8.74;61.39;100178.44;5001632;27;96844;-84
2021/11/08 03:59:36;;;;;;;10.73;7.65;;;;;;;8.77;61.83;100196.66;5005246;27;96940;-85
2021/11/08 04:02:02;;;;;;;9.43;7.80;;;;;;;8.69;62.14;100180.31;5015788;27;98296;-85
2021/11/08 04:04:28;;;;;;;13.63;7.57;;;;;;;8.86;61.58;100200.78;4998110;27;100924;-85
2021/11/08 04:06:54;;;;;;;10.70;7.40;;;;;;;8.81;61.37;100200.03;5014637;28;97074;-85
2021/11/08 04:09:20;;;;;;;11.73;7.20;;;;;;;8.76;61.93;100189.72;4999655;27;97108;-85
2021/11/08 04:11:47;;;;;;;13.57;7.70;;;;;;;8.68;61.55;100173.38;5015818;27;101624;-85
2021/11/08 04:14:15;;;;;;;12.65;8.40;;;;;;;8.81;61.65;100198.31;4995493;28;100191;-85
2021/11/08 04:16:40;;;;;;;9.52;7.90;;;;;;;8.78;61.74;100193.13;5017083;27;96756;-85
2021/11/08 04:19:07;;;;;;;12.65;7.65;;;;;;;8.84;61.73;100202.56;5013197;27;96938;-85
2021/11/08 04:21:36;;;;;;;12.05;7.15;;;;;;;8.84;61.75;100198.22;5020694;27;101855;-85
2021/11/08 04:24:03;;;;;;;9.95;7.43;;;;;;;8.77;61.68;100183.56;5021300;27;100167;-86
2021/11/08 04:26:29;;;;;;;10.48;8.10;;;;;;;8.84;62.06;100197.34;5002548;27;97633;-85
2021/11/08 04:29:05;;;;;;;11.10;7.50;;;;;;;8.71;62.19;100193.38;5018052;27;96880;-85
2021/11/08 04:31:34;;;;;;;14.10;8.75;;;;;;;8.68;62.15;100177.75;5001362;27;100008;-86
2021/11/08 04:39:31;;;;;;;9.93;6.47;;;;;;;8.84;62.39;100198.22;5012701;27;97672;-86
2021/11/08 04:42:03;;;;;;;12.07;5.63;;;;;;;8.77;62.60;100199.28;5010846;28;98321;-85
2021/11/08 05:32:20;;;;;;;9.10;5.25;;;;;;;8.87;63.55;100220.81;5019641;27;97178;-86
2021/11/08 05:34:45;;;;;;;10.77;4.85;;;;;;;8.86;63.35;100218.25;5015248;27;101410;-85
2021/11/08 05:37:11;;;;;;;14.38;5.43;;;;;;;8.82;62.95;100215.72;5032263;27;101391;-86
2021/11/08 05:39:43;;;;;;;9.55;5.00;;;;;;;8.88;63.37;100224.31;5016986;27;97152;-86
2021/11/08 05:42:09;;;;;;;12.55;5.53;;;;;;;8.83;63.24;100227.88;5004403;27;97268;-85
2021/11/08 05:44:38;;;;;;;8.75;5.10;;;;;;;8.84;63.18;100227.00;4989644;27;101850;-86
2021/11/08 05:47:03;;;;;;;16.02;5.25;;;;;;;8.92;63.17;100241.63;5000698;28;101174;-85
2021/11/08 05:49:29;;;;;;;11.48;5.60;;;;;;;8.97;63.17;100244.97;4990615;27;97973;-86
2021/11/08 05:51:55;;;;;;;16.80;5.30;;;;;;;8.98;63.04;100251.91;5015752;27;96853;-86
2021/11/08 05:54:21;;;;;;;11.68;4.60;;;;;;;8.94;63.28;100255.53;5003364;27;101172;-86
2021/11/08 05:57:15;;;;;;;11.18;4.88;;;;;;;8.97;62.97;100261.53;5020115;27;97507;-85
2021/11/08 05:59:51;;;;;;;9.73;4.25;;;;;;;8.96;63.50;100272.03;5021313;27;97096;-84
2021/11/08 06:51:54;;;;;;;10.90;5.10;;;;;;;8.70;69.10;100325.13;4937916;28;101740;-79
2021/11/08 06:54:22;;;;;;;10.63;5.57;;;;;;;8.81;69.10;100359.72;4934815;28;97359;-79
2021/11/08 06:56:56;;;;;;;11.52;5.35;;;;;;;8.74;68.64;100337.22;4952597;28;97463;-79
2021/11/08 06:59:24;;;;;;;15.15;5.22;;;;;;;8.86;69.18;100360.44;4946463;28;101275;-78
2021/11/08 07:01:52;;;;;;;11.27;5.50;;;;;;;8.81;69.24;100352.75;4933432;28;101350;-79
2021/11/08 07:04:18;;;;;;;10.65;5.65;;;;;;;8.88;68.77;100361.28;4966914;28;97168;-79
2021/11/08 07:06:44;;;;;;;14.07;6.10;;;;;;;8.88;68.85;100365.66;4934293;28;97515;-78
2021/11/08 07:09:11;;;;;;;10.32;5.07;;;;;;;8.89;68.92;100363.00;4949947;28;98115;-77
2021/11/08 07:11:38;;;;;;;12.15;5.32;;;;;;;8.86;69.04;100367.44;4933088;28;99935;-78
2021/11/08 07:14:08;;;;;;;9.80;4.75;;;;;;;8.93;69.26;100371.63;4950355;28;97326;-78
2021/11/08 07:16:34;;;;;;;12.80;5.25;;;;;;;9.04;67.95;100374.81;4950543;28;97318;-78
2021/11/08 07:19:00;;;;;;;12.70;4.22;;;;;;;9.01;68.34;100374.91;4950211;28;97767;-78
2021/11/08 07:21:25;;;;;;;7.18;4.78;;;;;;;9.09;67.88;100382.56;4950469;28;101679;-78
2021/11/08 07:23:51;;;;;;;10.82;5.20;;;;;;;9.06;67.92;100373.03;5010864;27;96882;-78
2021/11/08 07:26:17;;;;;;;9.15;5.40;;;;;;;9.16;67.63;100377.13;5014952;27;96915;-77
2021/11/08 07:28:42;;;;;;;12.65;5.68;;;;;;;9.21;67.77;100382.22;5014550;27;97576;-78
2021/11/08 07:31:09;;;;;;;11.65;6.07;;;;;;;9.28;67.52;100383.78;5011684;28;101410;-77
2021/11/08 07:33:35;;;;;;;11.10;5.38;;;;;;;9.32;66.79;100381.94;4995873;27;96999;-77
2021/11/08 07:36:00;;;;;;;11.60;5.82;;;;;;;9.27;67.38;100380.28;5010153;27;96891;-77
2021/11/08 07:38:26;;;;;;;10.90;4.95;;;;;;;9.32;67.13;100398.50;5009963;27;97410;-77
2021/11/08 07:40:52;;;;;;;15.52;6.35;;;;;;;9.30;67.33;100395.91;4996751;27;101315;-78
2021/11/08 07:43:18;;;;;;;10.52;5.78;;;;;;;9.24;67.36;100382.97;5006562;27;98312;-77
2021/11/08 07:45:43;;;;;;;11.35;5.10;;;;;;;9.43;66.88;100391.22;5006224;27;97487;-77
2021/11/08 07:48:09;;;;;;;15.70;5.55;;;;;;;9.44;66.62;100392.06;5025752;28;101751;-77
2021/11/08 07:50:36;;;;;;;7.75;5.43;;;;;;;9.37;66.71;100391.38;5007094;27;101742;-78
2021/11/08 07:53:02;;;;;;;9.13;4.50;;;;;;;9.44;66.54;100399.91;4996681;27;97327;-77
2021/11/08 07:55:27;;;;;;;11.43;4.90;;;;;;;9.46;66.16;100401.59;5035697;27;96989;-88
2021/11/08 07:57:53;;;;;;;10.20;4.72;;;;;;;9.44;66.30;100413.88;5036381;27;97626;-82
2021/11/08 08:00:18;;;;;;;8.18;5.05;;;;;;;9.45;66.71;100407.75;5020192;27;101591;-90
2021/11/08 08:02:44;;;;;;;13.77;5.10;;;;;;;9.46;66.21;100403.38;5007717;27;97589;-88
2021/11/08 08:05:10;;;;;;;7.15;4.05;;;;;;;9.50;66.83;100418.94;5005286;27;97094;-87
2021/11/08 08:07:35;;;;;;;11.90;5.88;;;;;;;9.50;66.48;100424.19;5007498;27;101315;-87
2021/11/08 08:10:02;;;;;;;8.90;5.53;;;;;;;9.48;66.59;100412.91;5004808;27;101420;-88
2021/11/08 08:12:28;;;;;;;9.70;4.68;;;;;;;9.44;66.67;100415.63;5035231;27;96726;-84
2021/11/08 08:14:53;;;;;;;9.68;4.55;;;;;;;9.53;66.59;100410.13;4998670;27;99765;-81
2021/11/08 08:17:19;;;;;;;8.50;5.63;;;;;;;9.57;66.62;100429.25;5001952;27;101524;-81
2021/11/08 08:19:45;;;;;;;8.23;4.82;;;;;;;9.63;66.32;100413.34;5018434;27;101154;-88
2021/11/08 08:22:11;;;;;;;10.20;5.32;;;;;;;9.74;65.96;100427.88;4992004;27;96760;-87
2021/11/08 08:24:37;;;;;;;9.55;4.47;;;;;;;9.88;65.79;100431.84;5005510;27;97176;-88
2021/11/08 08:27:04;;;;;;;8.40;4.15;;;;;;;9.90;65.65;100428.28;5024398;27;100200;-85
2021/11/08 08:29:33;;;;;;;9.15;4.93;;;;;;;10.02;65.64;100437.56;4999782;27;100505;-84
2021/11/08 08:31:58;;;;;;;9.82;5.05;;;;;;;9.92;65.26;100439.59;5016297;27;97110;-86
2021/11/08 08:34:25;;;;;;;12.80;5.03;;;;;;;9.93;65.76;100445.69;5034906;27;96883;-89
2021/11/08 08:36:53;;;;;;;4.97;4.35;;;;;;;9.87;66.16;100448.50;5058255;27;98410;-95
2021/11/08 08:39:20;;;;;;;7.57;4.70;;;;;;;9.82;66.06;100451.25;5021875;27;100510;-85
2021/11/08 08:41:47;;;;;;;9.07;4.60;;;;;;;9.68;66.23;100442.91;5018757;27;97065;-86
2021/11/08 08:44:13;;;;;;;11.23;5.68;;;;;;;9.80;66.41;100460.06;5003218;27;97122;-87
2021/11/08 08:46:49;;;;;;;8.20;5.68;;;;;;;9.86;66.18;100465.13;5014711;27;98132;-84
2021/11/08 08:49:16;;;;;;;8.73;4.88;;;;;;;9.85;66.08;100455.53;5018827;27;101502;-85
2021/11/08 08:51:42;;;;;;;5.32;4.65;;;;;;;9.88;66.60;100468.56;5031673;27;97022;-85
2021/11/08 08:54:09;;;;;;;7.80;4.20;;;;;;;9.90;66.43;100474.63;5002051;27;97283;-83
2021/11/08 08:56:34;;;;;;;5.43;4.43;;;;;;;9.78;66.18;100448.78;5014321;27;100998;-87
2021/11/08 08:59:01;;;;;;;9.02;4.45;;;;;;;9.94;65.82;100457.91;5001638;27;101687;-86
2021/11/08 09:01:27;;;;;;;7.82;5.05;;;;;;;10.13;65.41;100474.81;5018034;27;97999;-83
2021/11/08 09:03:56;;;;;;;12.60;4.65;;;;;;;10.17;65.89;100475.56;5012971;27;96856;-81
2021/11/08 09:06:23;;;;;;;6.95;4.90;;;;;;;10.03;66.19;100483.00;5005457;27;101077;-83
2021/11/08 09:08:50;;;;;;;6.18;4.97;;;;;;;9.93;66.14;100458.81;5010040;27;100845;-82
2021/11/08 09:11:16;;;;;;;8.30;4.82;;;;;;;10.02;65.78;100484.75;5026414;27;96870;-82
2021/11/08 09:13:42;;;;;;;8.60;5.00;;;;;;;10.09;66.39;100477.56;5020050;27;96870;-81
2021/11/08 09:16:11;;;;;;;5.85;4.43;;;;;;;10.12;66.50;100491.47;5011772;28;100844;-84
2021/11/08 09:18:43;;;;;;;8.88;5.22;;;;;;;10.15;65.98;100487.88;4992663;28;101774;-81
2021/11/08 09:21:09;;;;;;;8.50;5.20;;;;;;;10.15;66.48;100491.38;4995640;28;97190;-80
2021/11/08 09:23:35;;;;;;;7.65;5.05;;;;;;;9.92;66.58;100463.19;4993219;28;96847;-82
2021/11/08 09:26:02;;;;;;;5.97;5.10;;;;;;;10.13;66.89;100484.47;5010292;28;100155;-80
2021/11/08 09:28:29;;;;;;;9.50;4.88;;;;;;;10.12;66.97;100494.09;5023223;28;97552;-80
2021/11/08 09:30:54;;;;;;;7.65;4.70;;;;;;;9.98;66.58;100465.63;5007535;28;96850;-81
2021/11/08 09:33:20;;;;;;;4.88;4.30;;;;;;;10.18;66.05;100501.78;4978871;28;98005;-81
2021/11/08 09:35:49;;;;;;;5.55;4.30;;;;;;;10.08;66.06;100499.47;4988450;28;101224;-80
2021/11/08 09:38:16;;;;;;;4.38;4.05;;;;;;;10.11;66.47;100497.59;5007591;28;100900;-79
2021/11/08 09:40:43;;;;;;;8.85;4.40;;;;;;;10.14;66.09;100504.53;4994395;28;97239;-80
2021/11/08 09:43:13;;;;;;;5.47;3.88;;;;;;;10.15;65.51;100507.13;5009375;28;97234;-83
2021/11/08 09:45:40;;;;;;;9.23;5.20;;;;;;;10.07;66.04;100492.50;5027549;28;98192;-80
2021/11/08 09:48:05;;;;;;;5.35;4.85;;;;;;;10.20;65.76;100512.22;5009489;28;97751;-82
2021/11/08 09:50:33;;;;;;;7.63;4.05;;;;;;;10.13;65.56;100514.16;4994688;28;96869;-81
2021/11/08 09:53:01;;;;;;;6.95;5.10;;;;;;;10.08;65.64;100508.19;4972352;28;96842;-81
2021/11/08 09:55:27;;;;;;;7.03;5.05;;;;;;;10.09;66.26;100509.91;4976122;28;100913;-79
2021/11/08 09:57:53;;;;;;;5.43;4.70;;;;;;;10.20;65.88;100518.31;4989689;28;101461;-82
2021/11/08 10:00:27;;;;;;;5.30;4.32;;;;;;;10.18;65.76;100507.03;4970207;28;97054;-80
2021/11/08 10:03:02;;;;;;;6.22;5.10;;;;;;;10.27;65.45;100508.56;4985202;28;97567;-83
2021/11/08 10:05:32;;;;;;;6.40;4.85;;;;;;;10.27;65.84;100505.94;5000171;28;101229;-83
2021/11/08 10:07:59;;;;;;;5.55;4.68;;;;;;;10.62;64.56;100511.88;4990727;28;97579;-82
2021/11/08 10:10:26;;;;;;;5.68;4.13;;;;;;;11.34;62.97;100506.88;4997006;28;96937;-83
2021/11/08 10:13:16;;;;;;;4.15;3.75;;;;;;;11.53;62.44;100499.22;5010222;28;97227;-85
2021/11/08 10:15:46;;;;;;;5.07;4.38;;;;;;;11.43;62.70;100503.94;4994462;28;100524;-81
2021/11/08 10:18:13;;;;;;;4.93;4.40;;;;;;;11.84;61.62;100504.25;5010442;28;97424;-82
2021/11/08 10:20:42;;;;;;;5.47;4.93;;;;;;;11.88;60.66;100483.97;5003300;28;96859;-81
2021/11/08 10:23:10;;;;;;;4.53;4.13;;;;;;;12.77;58.67;100505.13;4994851;28;98100;-82
2021/11/08 10:25:37;;;;;;;7.35;4.85;;;;;;;11.86;60.96;100498.94;4991812;28;101871;-83
2021/11/08 10:28:09;;;;;;;6.22;4.22;;;;;;;11.62;61.21;100512.03;4996063;28;97339;-82
2021/11/08 10:30:36;;;;;;;5.03;4.18;;;;;;;11.48;61.93;100509.03;4994248;28;97169;-85
2021/11/08 10:33:15;;;;;;;6.30;4.40;;;;;;;11.36;62.22;100518.19;4978588;28;96999;-81
2021/11/08 10:35:45;;;;;;;4.70;3.53;;;;;;;11.35;62.17;100513.84;5008644;28;101276;-81
2021/11/08 10:38:17;;;;;;;3.42;3.13;;;;;;;11.42;62.36;100515.34;4975569;28;101571;-82
2021/11/08 10:40:44;;;;;;;;;;;;;;;11.29;62.44;100517.56;4970338;28;98099;-78
2021/11/08 10:43:11;;;;;;;4.88;4.45;;;;;;;11.12;62.81;100516.41;5006027;28;96900;-76
2021/11/08 10:45:47;;;;;;;5.97;4.65;;;;;;;11.04;63.26;100516.66;4976637;28;101175;-83
2021/11/08 10:48:21;;;;;;;4.50;4.10;;;;;;;10.86;63.23;100497.94;5001357;28;97950;-86
2021/11/08 10:50:47;;;;;;;4.93;4.30;;;;;;;10.93;63.16;100509.09;4989503;28;97770;-80
2021/11/08 10:53:13;;;;;;;4.80;4.03;;;;;;;10.97;63.18;100523.03;4993371;28;97306;-86
2021/11/08 10:55:38;;;;;;;4.80;4.25;;;;;;;11.04;63.38;100519.28;5009280;28;98102;-87
2021/11/08 10:58:14;;;;;;;5.50;4.32;;;;;;;10.97;63.40;100523.03;4973450;28;100170;-87
2021/11/08 11:00:56;;;;;;;4.20;3.65;;;;;;;10.87;63.78;100527.69;5008854;28;96797;-86
2021/11/08 11:03:23;;;;;;;5.65;3.85;;;;;;;10.83;63.57;100532.19;4990694;28;96824;-87
2021/11/08 11:06:03;;;;;;;4.03;3.60;;;;;;;10.87;64.27;100539.06;4976596;28;101577;-88
2021/11/08 11:08:33;;;;;;;4.72;4.20;;;;;;;10.83;63.99;100544.47;4975972;28;101207;-88
2021/11/08 11:11:06;;;;;;;5.72;5.25;;;;;;;10.76;64.51;100541.19;4992462;28;97754;-81
2021/11/08 11:13:32;;;;;;;5.80;4.93;;;;;;;10.65;64.35;100524.91;4975955;28;97024;-81
2021/11/08 11:16:02;;;;;;;5.30;4.82;;;;;;;10.71;65.24;100535.22;4972379;28;101369;-81
2021/11/08 11:18:34;;;;;;;6.03;5.43;;;;;;;10.72;65.05;100551.81;4990879;28;97529;-81
2021/11/08 11:21:17;;;;;;;5.32;4.82;;;;;;;10.70;64.80;100546.59;4971898;28;97136;-79
2021/11/08 11:23:49;;;;;;;8.77;6.07;;;;;;;10.76;65.84;100535.94;4992153;28;98726;-82
2021/11/08 11:26:17;;;;;;;7.10;6.18;;;;;;;11.01;65.19;100548.28;4988632;28;97633;-82
2021/11/08 11:28:45;;;;;;;9.57;5.78;;;;;;;11.14;67.46;100539.09;4990690;28;97742;-83
2021/11/08 11:31:20;;;;;;;6.72;6.22;;;;;;;11.22;66.22;100549.34;4992996;28;97492;-74
2021/11/08 11:33:47;;;;;;;8.63;6.00;;;;;;;11.43;65.76;100546.00;5002541;28;97084;-81
2021/11/08 11:36:17;;;;;;;12.05;6.75;;;;;;;11.37;64.41;100548.81;4991923;28;101295;-83
2021/11/08 11:38:48;;;;;;;8.60;6.55;;;;;;;11.23;64.60;100557.19;4975956;28;101618;-84
2021/11/08 11:41:19;;;;;;;7.22;5.70;;;;;;;11.14;66.02;100556.59;4992351;28;97461;-86
2021/11/08 11:43:48;;;;;;;6.07;5.57;;;;;;;10.98;65.59;100548.38;4994455;28;96954;-79
2021/11/08 11:46:38;;;;;;;6.85;6.07;;;;;;;10.93;65.16;100564.25;4978291;28;101355;-81
2021/11/08 11:49:05;;;;;;;6.47;5.60;;;;;;;10.79;65.05;100554.22;4991031;28;101176;-84
2021/11/08 11:51:52;;;;;;;6.07;5.43;;;;;;;10.82;64.45;100567.25;4987466;28;96890;-83
2021/11/08 11:54:21;;;;;;;5.80;5.30;;;;;;;10.71;64.43;100557.97;4980336;28;97116;-81
2021/11/08 11:56:50;;;;;;;5.72;5.32;;;;;;;10.62;64.34;100567.84;5002822;28;98427;-83
2021/11/08 11:59:16;;;;;;;6.07;5.53;;;;;;;10.61;65.04;100562.63;4994023;28;100387;-87
2021/11/08 12:01:42;;;;;;;5.55;5.15;;;;;;;10.63;64.67;100566.09;4991977;28;97221;-87
2021/11/08 12:04:08;;;;;;;6.10;5.60;;;;;;;10.46;64.64;100536.84;4990003;28;96947;-86
2021/11/08 12:06:37;;;;;;;6.18;5.68;;;;;;;10.61;64.71;100574.00;4991402;28;101511;-87
2021/11/08 12:09:07;;;;;;;6.22;5.57;;;;;;;10.61;64.64;100568.75;4992893;28;101877;-88
2021/11/08 12:11:42;;;;;;;5.45;4.95;;;;;;;10.64;64.74;100567.78;4971579;28;97713;-87
2021/11/08 12:14:18;;;;;;;6.25;5.65;;;;;;;10.61;64.65;100568.75;4972833;28;96941;-87
2021/11/08 12:16:59;;;;;;;6.25;5.75;;;;;;;10.69;64.73;100565.88;4990646;28;101444;-86
2021/11/08 12:19:28;;;;;;;6.45;5.70;;;;;;;10.63;64.40;100547.69;5027929;27;97387;-84
2021/11/08 12:21:54;;;;;;;5.82;5.32;;;;;;;10.64;64.09;100560.75;5011999;27;97243;-82
2021/11/08 12:24:23;;;;;;;7.10;5.72;;;;;;;10.70;64.09;100564.13;5016823;27;97277;-83
2021/11/08 12:27:09;;;;;;;6.63;6.03;;;;;;;10.65;64.28;100551.16;4998137;27;101229;-85
2021/11/08 12:29:52;;;;;;;6.22;5.75;;;;;;;10.69;64.03;100558.00;4999331;27;101579;-85
2021/11/08 12:32:18;;;;;;;9.65;5.70;;;;;;;10.74;64.10;100550.00;5008957;28;97001;-85
2021/11/08 12:34:54;;;;;;;6.47;5.88;;;;;;;10.71;63.54;100534.34;5014428;27;97340;-85
2021/11/08 12:37:21;;;;;;;8.45;6.00;;;;;;;10.74;63.77;100564.00;5016776;27;97469;-84
2021/11/08 12:39:57;;;;;;;6.15;5.57;;;;;;;10.59;64.24;100546.09;5031855;27;97598;-85
2021/11/08 12:42:23;;;;;;;6.55;5.97;;;;;;;10.67;64.25;100572.09;5034197;27;96805;-83
2021/11/08 12:44:50;;;;;;;6.93;6.03;;;;;;;10.64;64.41;100571.28;5018575;27;97163;-84
2021/11/08 12:47:16;;;;;;;8.55;5.88;;;;;;;10.65;64.45;100566.91;4998607;28;101490;-84
2021/11/08 12:49:54;;;;;;;6.35;5.75;;;;;;;10.62;64.19;100559.97;5032253;27;97177;-81
2021/11/08 12:52:27;;;;;;;6.75;6.00;;;;;;;10.60;64.68;100563.56;5002696;27;97590;-85
2021/11/08 12:55:04;;;;;;;6.25;4.60;;;;;;;10.52;64.25;100568.16;5018862;27;97222;-83
2021/11/08 12:57:31;;;;;;;6.90;5.80;;;;;;;10.41;64.37;100547.47;5053463;27;97973;-84
2021/11/08 13:00:05;;;;;;;7.93;7.22;;;;;;;10.46;64.57;100561.34;5035303;27;97783;-85
2021/11/08 13:02:40;;;;;;;7.63;7.03;;;;;;;10.49;64.70;100579.59;5000487;27;97288;-85
2021/11/08 13:05:09;;;;;;;7.70;7.00;;;;;;;10.34;64.63;100551.19;5007601;27;97291;-85
2021/11/08 13:07:37;;;;;;;7.80;7.20;;;;;;;10.44;64.47;100573.63;5035588;27;97450;-85
2021/11/08 13:10:25;;;;;;;8.25;7.55;;;;;;;10.40;64.71;100572.00;5035036;27;97941;-85
2021/11/08 13:12:52;;;;;;;8.23;7.63;;;;;;;10.25;64.58;100559.31;5038564;27;98451;-85
2021/11/08 13:15:22;;;;;;;8.57;7.97;;;;;;;10.33;64.80;100568.72;5036760;27;96778;-86
2021/11/08 13:18:02;;;;;;;8.50;7.75;;;;;;;10.37;65.08;100583.47;5018292;27;98074;-87
2021/11/08 13:20:30;;;;;;;9.48;8.55;;;;;;;10.33;65.54;100573.97;5035503;27;97126;-87